THY676 LTFM-HAAB
Flight info
| Callsign | THY676 |
|---|---|
| Flight time | N/A |
| Altitude | 35000 |
| Route | RATVU UT35 AYT UA16 TOMBI DCT PEDER DCT MAROS M855 RASDA A16 CVO A727 LXR P751 TOMRU DCT KSL/N0471F360 DCT ALRAP/N0468F370 T124 AMUDO AMUDO1A |
| Aircraft | B38M/M-SDE1FGHILORVWXY/HB1 |
Departure
| Time | N/A |
|---|---|
| Airport | İstanbul Airport (LTFM) |
Arrival
| Time | 2026-04-28 10:34 |
|---|---|
| Airport | Addis Ababa Bole International Airport (HAAB) |
| Time | Latitude | Longitude | Altitude | Speed | Heading |
|---|---|---|---|---|---|
| 2026-04-28 09:34 | 15.11208 | 36.31784 | 34840 ft | 482 kts | 185° |
| 2026-04-28 09:34 | 15.04500 | 36.31370 | 34839 ft | 482 kts | 185° |
| 2026-04-28 09:35 | 14.97853 | 36.30960 | 34836 ft | 482 kts | 185° |
| 2026-04-28 09:35 | 14.91146 | 36.30546 | 34838 ft | 482 kts | 185° |
| 2026-04-28 09:36 | 14.84448 | 36.30134 | 34837 ft | 481 kts | 185° |
| 2026-04-28 09:36 | 14.77782 | 36.29723 | 34831 ft | 481 kts | 185° |
| 2026-04-28 09:37 | 14.71085 | 36.29311 | 34832 ft | 481 kts | 185° |
| 2026-04-28 09:37 | 14.67735 | 36.29383 | 34821 ft | 483 kts | 173° |
| 2026-04-28 09:37 | 14.64472 | 36.30222 | 34825 ft | 484 kts | 160° |
| 2026-04-28 09:38 | 14.58182 | 36.32651 | 34829 ft | 485 kts | 161° |
| 2026-04-28 09:38 | 14.51804 | 36.34966 | 34826 ft | 485 kts | 162° |
| 2026-04-28 09:39 | 14.45449 | 36.37257 | 34827 ft | 485 kts | 162° |
| 2026-04-28 09:39 | 14.39062 | 36.39557 | 34823 ft | 485 kts | 162° |
| 2026-04-28 09:40 | 14.32711 | 36.41843 | 34826 ft | 485 kts | 162° |
| 2026-04-28 09:40 | 14.26334 | 36.44137 | 34829 ft | 484 kts | 162° |
| 2026-04-28 09:41 | 14.19956 | 36.46430 | 34831 ft | 484 kts | 161° |
| 2026-04-28 09:41 | 14.13628 | 36.48703 | 34834 ft | 484 kts | 161° |
| 2026-04-28 09:42 | 14.07253 | 36.50992 | 34836 ft | 484 kts | 161° |
| 2026-04-28 09:42 | 14.00918 | 36.53264 | 34835 ft | 484 kts | 161° |
| 2026-04-28 09:43 | 13.94546 | 36.55550 | 34840 ft | 484 kts | 161° |
| 2026-04-28 09:43 | 13.88199 | 36.57825 | 34840 ft | 484 kts | 161° |
| 2026-04-28 09:44 | 13.81818 | 36.60110 | 34841 ft | 484 kts | 161° |
| 2026-04-28 09:44 | 13.75499 | 36.62372 | 34843 ft | 484 kts | 161° |
| 2026-04-28 09:45 | 13.69127 | 36.64652 | 34841 ft | 484 kts | 161° |
| 2026-04-28 09:45 | 13.62780 | 36.66921 | 34844 ft | 484 kts | 161° |
| 2026-04-28 09:46 | 13.56401 | 36.69201 | 34848 ft | 484 kts | 161° |
| 2026-04-28 09:46 | 13.50067 | 36.71464 | 34850 ft | 484 kts | 161° |
| 2026-04-28 09:47 | 13.43690 | 36.73740 | 34851 ft | 484 kts | 161° |
| 2026-04-28 09:47 | 13.37346 | 36.76003 | 34854 ft | 484 kts | 161° |
| 2026-04-28 09:48 | 13.30982 | 36.78273 | 34857 ft | 484 kts | 161° |
| 2026-04-28 09:48 | 13.25680 | 36.80162 | 34861 ft | 484 kts | 161° |
| 2026-04-28 09:49 | 13.19299 | 36.82435 | 34870 ft | 484 kts | 161° |
| 2026-04-28 09:49 | 13.12973 | 36.84687 | 34870 ft | 483 kts | 161° |
| 2026-04-28 09:50 | 13.06599 | 36.86955 | 34878 ft | 483 kts | 161° |
| 2026-04-28 09:50 | 13.00242 | 36.89216 | 34886 ft | 483 kts | 161° |
| 2026-04-28 09:51 | 12.93912 | 36.91466 | 34898 ft | 483 kts | 161° |
| 2026-04-28 09:51 | 12.87580 | 36.93715 | 34905 ft | 483 kts | 161° |
| 2026-04-28 09:52 | 12.81219 | 36.95973 | 34913 ft | 483 kts | 161° |
| 2026-04-28 09:52 | 12.74857 | 36.98231 | 34922 ft | 483 kts | 161° |
| 2026-04-28 09:53 | 12.68495 | 37.00487 | 34935 ft | 483 kts | 161° |
| 2026-04-28 09:53 | 12.62181 | 37.02725 | 34945 ft | 483 kts | 161° |
| 2026-04-28 09:54 | 12.55804 | 37.04985 | 34952 ft | 483 kts | 160° |
| 2026-04-28 09:54 | 12.49433 | 37.07241 | 34962 ft | 484 kts | 160° |
| 2026-04-28 09:55 | 12.43108 | 37.09479 | 34974 ft | 484 kts | 160° |
| 2026-04-28 09:55 | 12.36724 | 37.11737 | 34982 ft | 484 kts | 160° |
| 2026-04-28 09:56 | 12.30406 | 37.13971 | 34984 ft | 483 kts | 160° |
| 2026-04-28 09:56 | 12.24036 | 37.16222 | 34988 ft | 483 kts | 160° |
| 2026-04-28 09:57 | 12.17682 | 37.18466 | 34991 ft | 482 kts | 160° |
| 2026-04-28 09:57 | 12.11398 | 37.20685 | 34997 ft | 481 kts | 160° |
| 2026-04-28 09:58 | 12.05067 | 37.22919 | 34999 ft | 480 kts | 160° |
| 2026-04-28 09:58 | 11.98731 | 37.25153 | 35002 ft | 480 kts | 160° |
| 2026-04-28 09:59 | 11.92459 | 37.27364 | 35010 ft | 479 kts | 160° |
| 2026-04-28 09:59 | 11.86167 | 37.29581 | 34997 ft | 479 kts | 160° |
| 2026-04-28 10:00 | 11.79850 | 37.31805 | 35002 ft | 479 kts | 160° |
| 2026-04-28 10:00 | 11.73531 | 37.34029 | 35001 ft | 479 kts | 160° |
| 2026-04-28 10:01 | 11.67256 | 37.36237 | 35002 ft | 479 kts | 160° |
| 2026-04-28 10:01 | 11.60935 | 37.38459 | 35007 ft | 479 kts | 160° |
| 2026-04-28 10:02 | 11.54645 | 37.40670 | 35002 ft | 479 kts | 160° |
| 2026-04-28 10:02 | 11.48333 | 37.42887 | 35009 ft | 479 kts | 160° |
| 2026-04-28 10:03 | 11.42005 | 37.45109 | 35014 ft | 479 kts | 160° |
| 2026-04-28 10:03 | 11.35731 | 37.47311 | 35018 ft | 479 kts | 160° |
| 2026-04-28 10:04 | 11.29417 | 37.49526 | 35022 ft | 479 kts | 160° |
| 2026-04-28 10:04 | 11.23115 | 37.51736 | 35023 ft | 478 kts | 160° |
| 2026-04-28 10:05 | 11.16860 | 37.53928 | 35024 ft | 477 kts | 160° |
| 2026-04-28 10:05 | 11.10569 | 37.56132 | 35027 ft | 477 kts | 159° |
| 2026-04-28 10:06 | 11.04280 | 37.58334 | 35032 ft | 476 kts | 160° |
| 2026-04-28 10:06 | 10.98012 | 37.60528 | 35034 ft | 476 kts | 160° |
| 2026-04-28 10:07 | 10.91794 | 37.62703 | 35036 ft | 475 kts | 160° |
| 2026-04-28 10:07 | 10.85518 | 37.64897 | 35040 ft | 475 kts | 160° |
| 2026-04-28 10:08 | 10.79286 | 37.67076 | 35052 ft | 475 kts | 160° |
| 2026-04-28 10:08 | 10.73022 | 37.69264 | 35053 ft | 475 kts | 160° |
| 2026-04-28 10:09 | 10.66755 | 37.71453 | 35049 ft | 475 kts | 160° |
| 2026-04-28 10:09 | 10.60532 | 37.73625 | 35056 ft | 475 kts | 160° |
| 2026-04-28 10:10 | 10.54267 | 37.75811 | 35059 ft | 475 kts | 160° |
| 2026-04-28 10:10 | 10.48039 | 37.77983 | 35046 ft | 475 kts | 160° |
| 2026-04-28 10:11 | 10.41771 | 37.80168 | 35040 ft | 476 kts | 160° |
| 2026-04-28 10:11 | 10.35490 | 37.82357 | 35030 ft | 476 kts | 160° |
| 2026-04-28 10:12 | 10.29257 | 37.84528 | 35010 ft | 476 kts | 160° |
| 2026-04-28 10:12 | 10.22970 | 37.86717 | 35000 ft | 476 kts | 160° |
| 2026-04-28 10:13 | 10.16739 | 37.88886 | 34985 ft | 476 kts | 160° |
| 2026-04-28 10:13 | 10.15798 | 37.89213 | 34981 ft | 476 kts | 160° |
| 2026-04-28 10:17 | 10.11081 | 37.90854 | 34974 ft | 477 kts | 160° |
| 2026-04-28 10:18 | 10.04787 | 37.93043 | 34958 ft | 477 kts | 160° |
| 2026-04-28 10:18 | 9.98495 | 37.95230 | 34959 ft | 477 kts | 160° |
| 2026-04-28 10:19 | 9.92234 | 37.97406 | 34950 ft | 478 kts | 160° |
| 2026-04-28 10:19 | 9.85943 | 37.99591 | 34951 ft | 478 kts | 160° |
| 2026-04-28 10:20 | 9.82811 | 38.00678 | 34789 ft | 471 kts | 160° |
| 2026-04-28 10:20 | 9.79702 | 38.01758 | 33932 ft | 475 kts | 160° |
| 2026-04-28 10:20 | 9.76542 | 38.02854 | 32818 ft | 483 kts | 160° |
| 2026-04-28 10:20 | 9.73411 | 38.03941 | 32209 ft | 480 kts | 160° |
| 2026-04-28 10:21 | 9.70196 | 38.05056 | 31209 ft | 485 kts | 160° |
| 2026-04-28 10:21 | 9.67027 | 38.06156 | 30414 ft | 487 kts | 160° |
| 2026-04-28 10:21 | 9.63820 | 38.07268 | 29323 ft | 490 kts | 160° |
| 2026-04-28 10:21 | 9.60640 | 38.08543 | 28722 ft | 483 kts | 155° |
| 2026-04-28 10:22 | 9.57574 | 38.09897 | 27997 ft | 480 kts | 155° |
| 2026-04-28 10:22 | 9.54510 | 38.11229 | 27940 ft | 479 kts | 156° |
| 2026-04-28 10:22 | 9.51438 | 38.12559 | 27982 ft | 481 kts | 156° |
| 2026-04-28 10:22 | 9.48361 | 38.13890 | 26935 ft | 485 kts | 156° |
| 2026-04-28 10:23 | 9.45183 | 38.15263 | 25578 ft | 499 kts | 156° |
| 2026-04-28 10:23 | 9.42007 | 38.16635 | 24916 ft | 493 kts | 156° |
| 2026-04-28 10:23 | 9.38905 | 38.17975 | 24342 ft | 486 kts | 156° |
| 2026-04-28 10:23 | 9.35813 | 38.19311 | 23796 ft | 480 kts | 156° |
| 2026-04-28 10:24 | 9.32750 | 38.20632 | 23113 ft | 475 kts | 156° |
| 2026-04-28 10:24 | 9.29723 | 38.21940 | 22417 ft | 470 kts | 156° |
| 2026-04-28 10:24 | 9.26728 | 38.23232 | 21735 ft | 466 kts | 156° |
| 2026-04-28 10:24 | 9.23779 | 38.24505 | 21070 ft | 461 kts | 156° |
| 2026-04-28 10:25 | 9.20829 | 38.25777 | 20382 ft | 458 kts | 156° |
| 2026-04-28 10:25 | 9.17910 | 38.27036 | 19698 ft | 454 kts | 156° |
| 2026-04-28 10:25 | 9.15010 | 38.28287 | 19039 ft | 445 kts | 156° |
| 2026-04-28 10:25 | 9.12230 | 38.29486 | 18407 ft | 430 kts | 156° |
| 2026-04-28 10:26 | 9.09516 | 38.30655 | 17737 ft | 416 kts | 156° |
| 2026-04-28 10:26 | 9.06896 | 38.31785 | 17114 ft | 403 kts | 156° |
| 2026-04-28 10:26 | 9.04340 | 38.32887 | 16482 ft | 392 kts | 156° |
| 2026-04-28 10:26 | 9.01861 | 38.33955 | 15861 ft | 383 kts | 156° |
| 2026-04-28 10:27 | 8.99393 | 38.35018 | 15243 ft | 387 kts | 156° |
| 2026-04-28 10:27 | 8.96906 | 38.36090 | 14620 ft | 388 kts | 156° |
| 2026-04-28 10:27 | 8.94446 | 38.37150 | 14034 ft | 390 kts | 156° |
| 2026-04-28 10:27 | 8.92010 | 38.38354 | 13368 ft | 390 kts | 145° |
| 2026-04-28 10:28 | 8.90084 | 38.40218 | 12441 ft | 374 kts | 125° |
| 2026-04-28 10:28 | 8.89011 | 38.42579 | 10534 ft | 372 kts | 101° |
| 2026-04-28 10:28 | 8.89145 | 38.45147 | 9157 ft | 362 kts | 72° |
| 2026-04-28 10:29 | 8.90380 | 38.49477 | 9184 ft | 292 kts | 77° |
| 2026-04-28 10:29 | 8.90820 | 38.51447 | 9142 ft | 290 kts | 78° |
| 2026-04-28 10:29 | 8.91254 | 38.53442 | 9086 ft | 289 kts | 78° |
| 2026-04-28 10:29 | 8.91677 | 38.55427 | 9194 ft | 289 kts | 78° |
| 2026-04-28 10:30 | 8.92095 | 38.57416 | 9442 ft | 290 kts | 78° |
| 2026-04-28 10:30 | 8.92513 | 38.59418 | 9655 ft | 291 kts | 78° |
| 2026-04-28 10:30 | 8.92908 | 38.61310 | 9688 ft | 259 kts | 78° |
| 2026-04-28 10:30 | 8.93253 | 38.62975 | 9700 ft | 228 kts | 78° |
| 2026-04-28 10:31 | 8.93562 | 38.64461 | 9721 ft | 212 kts | 78° |
| 2026-04-28 10:31 | 8.93864 | 38.65919 | 9774 ft | 211 kts | 78° |
| 2026-04-28 10:31 | 8.94165 | 38.67370 | 9783 ft | 210 kts | 78° |
| 2026-04-28 10:31 | 8.94470 | 38.68819 | 9752 ft | 210 kts | 77° |
| 2026-04-28 10:32 | 8.94881 | 38.70239 | 9703 ft | 210 kts | 74° |
| 2026-04-28 10:32 | 8.95285 | 38.71663 | 9639 ft | 210 kts | 75° |
| 2026-04-28 10:32 | 8.95670 | 38.73004 | 9481 ft | 189 kts | 74° |
| 2026-04-28 10:32 | 8.96034 | 38.74249 | 9252 ft | 178 kts | 74° |
| 2026-04-28 10:33 | 8.96374 | 38.75412 | 9018 ft | 173 kts | 74° |
| 2026-04-28 10:33 | 8.96714 | 38.76576 | 8719 ft | 172 kts | 74° |
| 2026-04-28 10:33 | 8.97052 | 38.77728 | 8382 ft | 172 kts | 75° |
| 2026-04-28 10:33 | 8.97408 | 38.78907 | 7807 ft | 173 kts | 76° |
| 2026-04-28 10:34 | 8.97721 | 38.80012 | 7619 ft | 151 kts | 76° |
| 2026-04-28 10:34 | 8.97933 | 38.80760 | 7610 ft | 59 kts | 72° |
| 2026-04-28 10:34 | 8.98055 | 38.81114 | 7605 ft | 38 kts | 65° |
| 2026-04-28 10:34 | 8.98133 | 38.81240 | 7606 ft | 17 kts | 42° |
| 2026-04-28 10:35 | 8.98140 | 38.81246 | 7606 ft | 0 kts | 40° |
| 2026-04-28 10:44 | 8.98098 | 38.79219 | 7622 ft | 0 kts | 341° |
| 2026-04-28 10:44 | 8.98099 | 38.79219 | 7622 ft | 0 kts | 341° |